Spirit River, Canada
Current Conditions -  °F | °C
As of 1:00 AM on Friday 24 Oct 2014 (Local Time) from CYQU Reporting Station
Scattered Clouds Scattered Clouds  
Wind Chill: 28°   Ceiling: Unl
Heat Index: 28°   Visibility: 25mi
Dew Point: 28°   Wind: 3mph
Humidity: 100%   Direction: 220°SW
Pressure: 29.69"   Gusts: NA
Location:  55.78°N, 118.83°W
Report Text: CYQU 240700Z 22003KT 210V270 25SM FEW070 SCT210 M02/M02 A2969 RMK AC1CI2 SLP083
Loading
Personal Weather Stations






























Interactive Weather Map
Tropical Storm Tracking
New forecast layout! Learn more

10-Day Weather Forecast

Advertisements
Track Severe Weather on mobile